sensor_id;sensor_type;location;lat;lon;timestamp;P1;durP1;ratioP1;P2;durP2;ratioP2
6023;SDS011;3040;42.654;23.296;2023-01-08T00:00:43;54.70;;;29.43;;
6023;SDS011;3040;42.654;23.296;2023-01-08T00:03:12;49.37;;;29.73;;
6023;SDS011;3040;42.654;23.296;2023-01-08T00:05:39;59.63;;;31.27;;
6023;SDS011;3040;42.654;23.296;2023-01-08T00:08:07;50.50;;;29.53;;
6023;SDS011;3040;42.654;23.296;2023-01-08T00:10:34;40.67;;;24.73;;
6023;SDS011;3040;42.654;23.296;2023-01-08T00:13:01;32.50;;;20.33;;
6023;SDS011;3040;42.654;23.296;2023-01-08T00:15:29;25.73;;;16.87;;
6023;SDS011;3040;42.654;23.296;2023-01-08T00:17:56;34.20;;;21.60;;
6023;SDS011;3040;42.654;23.296;2023-01-08T00:20:24;32.93;;;19.23;;
6023;SDS011;3040;42.654;23.296;2023-01-08T00:22:51;32.90;;;20.30;;
6023;SDS011;3040;42.654;23.296;2023-01-08T00:25:18;37.73;;;21.80;;
6023;SDS011;3040;42.654;23.296;2023-01-08T00:27:45;43.10;;;22.20;;
6023;SDS011;3040;42.654;23.296;2023-01-08T00:30:12;53.00;;;26.73;;
6023;SDS011;3040;42.654;23.296;2023-01-08T00:32:39;33.00;;;21.00;;
6023;SDS011;3040;42.654;23.296;2023-01-08T00:35:06;40.60;;;23.93;;
6023;SDS011;3040;42.654;23.296;2023-01-08T00:37:35;39.37;;;22.80;;
6023;SDS011;3040;42.654;23.296;2023-01-08T00:40:02;35.67;;;22.50;;
6023;SDS011;3040;42.654;23.296;2023-01-08T00:42:29;30.63;;;20.27;;
6023;SDS011;3040;42.654;23.296;2023-01-08T00:44:56;30.90;;;19.20;;
6023;SDS011;3040;42.654;23.296;2023-01-08T00:47:23;20.47;;;15.37;;
6023;SDS011;3040;42.654;23.296;2023-01-08T00:49:50;16.67;;;13.57;;
6023;SDS011;3040;42.654;23.296;2023-01-08T00:52:16;12.13;;;10.87;;
6023;SDS011;3040;42.654;23.296;2023-01-08T00:54:45;16.27;;;11.87;;
6023;SDS011;3040;42.654;23.296;2023-01-08T00:57:11;11.97;;;10.70;;
6023;SDS011;3040;42.654;23.296;2023-01-08T00:59:38;24.17;;;15.70;;
6023;SDS011;3040;42.654;23.296;2023-01-08T01:02:05;24.87;;;17.73;;
6023;SDS011;3040;42.654;23.296;2023-01-08T01:04:32;29.40;;;17.77;;
6023;SDS011;3040;42.654;23.296;2023-01-08T01:06:59;27.60;;;16.77;;
6023;SDS011;3040;42.654;23.296;2023-01-08T01:09:26;26.10;;;17.23;;
6023;SDS011;3040;42.654;23.296;2023-01-08T01:11:54;22.33;;;14.93;;
6023;SDS011;3040;42.654;23.296;2023-01-08T01:14:21;12.30;;;10.70;;
6023;SDS011;3040;42.654;23.296;2023-01-08T01:16:48;19.77;;;13.90;;
6023;SDS011;3040;42.654;23.296;2023-01-08T01:19:15;22.43;;;13.30;;
6023;SDS011;3040;42.654;23.296;2023-01-08T01:21:43;17.77;;;14.10;;
6023;SDS011;3040;42.654;23.296;2023-01-08T01:24:10;21.80;;;14.60;;
6023;SDS011;3040;42.654;23.296;2023-01-08T01:26:40;13.00;;;11.07;;
6023;SDS011;3040;42.654;23.296;2023-01-08T01:29:08;14.57;;;10.53;;
6023;SDS011;3040;42.654;23.296;2023-01-08T01:31:35;12.60;;;9.73;;
6023;SDS011;3040;42.654;23.296;2023-01-08T01:34:02;13.00;;;10.63;;
6023;SDS011;3040;42.654;23.296;2023-01-08T01:36:29;14.40;;;10.73;;
6023;SDS011;3040;42.654;23.296;2023-01-08T01:38:56;11.40;;;9.93;;
6023;SDS011;3040;42.654;23.296;2023-01-08T01:41:24;11.47;;;10.27;;
6023;SDS011;3040;42.654;23.296;2023-01-08T01:43:53;10.30;;;9.50;;
6023;SDS011;3040;42.654;23.296;2023-01-08T01:46:24;13.27;;;9.70;;
6023;SDS011;3040;42.654;23.296;2023-01-08T01:49:01;24.50;;;12.50;;
6023;SDS011;3040;42.654;23.296;2023-01-08T01:51:32;20.53;;;15.23;;
6023;SDS011;3040;42.654;23.296;2023-01-08T01:53:59;12.57;;;10.70;;
6023;SDS011;3040;42.654;23.296;2023-01-08T01:56:29;20.57;;;12.83;;
6023;SDS011;3040;42.654;23.296;2023-01-08T01:58:57;28.13;;;17.70;;
6023;SDS011;3040;42.654;23.296;2023-01-08T02:01:26;30.70;;;17.93;;
6023;SDS011;3040;42.654;23.296;2023-01-08T02:03:56;34.63;;;21.17;;
6023;SDS011;3040;42.654;23.296;2023-01-08T02:06:26;28.10;;;18.77;;
6023;SDS011;3040;42.654;23.296;2023-01-08T02:09:01;39.00;;;20.53;;
6023;SDS011;3040;42.654;23.296;2023-01-08T02:11:37;38.37;;;21.77;;
6023;SDS011;3040;42.654;23.296;2023-01-08T02:14:12;28.63;;;17.80;;
6023;SDS011;3040;42.654;23.296;2023-01-08T02:16:46;27.00;;;18.53;;
6023;SDS011;3040;42.654;23.296;2023-01-08T02:19:20;27.60;;;18.20;;
6023;SDS011;3040;42.654;23.296;2023-01-08T02:21:58;28.43;;;18.67;;
6023;SDS011;3040;42.654;23.296;2023-01-08T02:24:35;30.17;;;19.20;;
6023;SDS011;3040;42.654;23.296;2023-01-08T02:27:12;34.30;;;19.53;;
6023;SDS011;3040;42.654;23.296;2023-01-08T02:29:41;34.77;;;21.40;;
6023;SDS011;3040;42.654;23.296;2023-01-08T02:32:09;37.63;;;22.23;;
6023;SDS011;3040;42.654;23.296;2023-01-08T02:34:36;24.97;;;16.83;;
6023;SDS011;3040;42.654;23.296;2023-01-08T02:37:03;25.73;;;17.30;;
6023;SDS011;3040;42.654;23.296;2023-01-08T02:39:37;19.30;;;14.57;;
6023;SDS011;3040;42.654;23.296;2023-01-08T02:42:17;23.07;;;15.87;;
6023;SDS011;3040;42.654;23.296;2023-01-08T02:44:56;22.53;;;17.07;;
6023;SDS011;3040;42.654;23.296;2023-01-08T02:47:29;28.37;;;20.17;;
6023;SDS011;3040;42.654;23.296;2023-01-08T02:50:00;27.50;;;18.37;;
6023;SDS011;3040;42.654;23.296;2023-01-08T02:52:36;25.23;;;16.50;;
6023;SDS011;3040;42.654;23.296;2023-01-08T02:55:07;24.77;;;17.17;;
6023;SDS011;3040;42.654;23.296;2023-01-08T02:57:37;27.10;;;17.73;;
6023;SDS011;3040;42.654;23.296;2023-01-08T03:00:05;23.57;;;16.17;;
6023;SDS011;3040;42.654;23.296;2023-01-08T03:02:33;38.30;;;21.73;;
6023;SDS011;3040;42.654;23.296;2023-01-08T03:05:06;27.17;;;19.30;;
6023;SDS011;3040;42.654;23.296;2023-01-08T03:07:39;27.37;;;17.40;;
6023;SDS011;3040;42.654;23.296;2023-01-08T03:10:07;10.47;;;9.50;;
6023;SDS011;3040;42.654;23.296;2023-01-08T03:12:39;15.40;;;10.17;;
6023;SDS011;3040;42.654;23.296;2023-01-08T03:15:12;19.37;;;12.97;;
6023;SDS011;3040;42.654;23.296;2023-01-08T03:17:42;27.53;;;17.13;;
6023;SDS011;3040;42.654;23.296;2023-01-08T03:20:13;16.60;;;11.43;;
6023;SDS011;3040;42.654;23.296;2023-01-08T03:22:43;13.27;;;10.67;;
6023;SDS011;3040;42.654;23.296;2023-01-08T03:25:13;15.80;;;13.10;;
6023;SDS011;3040;42.654;23.296;2023-01-08T03:27:43;24.73;;;16.67;;
6023;SDS011;3040;42.654;23.296;2023-01-08T03:30:13;21.13;;;13.97;;
6023;SDS011;3040;42.654;23.296;2023-01-08T03:32:42;13.60;;;11.60;;
6023;SDS011;3040;42.654;23.296;2023-01-08T03:35:12;15.60;;;11.03;;
6023;SDS011;3040;42.654;23.296;2023-01-08T03:37:44;12.37;;;11.03;;
6023;SDS011;3040;42.654;23.296;2023-01-08T03:40:16;10.27;;;8.87;;
6023;SDS011;3040;42.654;23.296;2023-01-08T03:42:48;10.07;;;8.73;;
6023;SDS011;3040;42.654;23.296;2023-01-08T03:45:15;8.67;;;7.87;;
6023;SDS011;3040;42.654;23.296;2023-01-08T03:47:42;12.03;;;8.40;;
6023;SDS011;3040;42.654;23.296;2023-01-08T03:50:13;8.97;;;7.27;;
6023;SDS011;3040;42.654;23.296;2023-01-08T03:52:42;13.50;;;8.60;;
6023;SDS011;3040;42.654;23.296;2023-01-08T03:55:09;11.47;;;10.20;;
6023;SDS011;3040;42.654;23.296;2023-01-08T03:57:36;11.37;;;10.13;;
6023;SDS011;3040;42.654;23.296;2023-01-08T04:00:05;16.83;;;14.43;;
6023;SDS011;3040;42.654;23.296;2023-01-08T04:02:32;19.23;;;13.03;;
6023;SDS011;3040;42.654;23.296;2023-01-08T04:04:59;23.47;;;15.30;;
6023;SDS011;3040;42.654;23.296;2023-01-08T04:07:26;23.40;;;14.40;;
6023;SDS011;3040;42.654;23.296;2023-01-08T04:09:53;22.57;;;15.13;;
6023;SDS011;3040;42.654;23.296;2023-01-08T04:12:20;21.83;;;14.50;;
6023;SDS011;3040;42.654;23.296;2023-01-08T04:14:48;11.97;;;10.77;;
6023;SDS011;3040;42.654;23.296;2023-01-08T04:17:16;24.63;;;12.67;;
6023;SDS011;3040;42.654;23.296;2023-01-08T04:19:43;12.50;;;9.20;;
6023;SDS011;3040;42.654;23.296;2023-01-08T04:22:10;10.40;;;9.30;;
6023;SDS011;3040;42.654;23.296;2023-01-08T04:24:37;12.07;;;9.57;;
6023;SDS011;3040;42.654;23.296;2023-01-08T04:27:04;13.87;;;10.97;;
6023;SDS011;3040;42.654;23.296;2023-01-08T04:29:31;10.10;;;9.20;;
6023;SDS011;3040;42.654;23.296;2023-01-08T04:31:58;14.87;;;10.90;;
6023;SDS011;3040;42.654;23.296;2023-01-08T04:34:26;10.70;;;9.60;;
6023;SDS011;3040;42.654;23.296;2023-01-08T04:36:53;9.17;;;8.27;;
6023;SDS011;3040;42.654;23.296;2023-01-08T04:39:20;7.80;;;6.37;;
6023;SDS011;3040;42.654;23.296;2023-01-08T04:41:47;6.80;;;6.30;;
6023;SDS011;3040;42.654;23.296;2023-01-08T04:44:14;5.30;;;5.00;;
6023;SDS011;3040;42.654;23.296;2023-01-08T04:46:40;6.40;;;5.57;;
6023;SDS011;3040;42.654;23.296;2023-01-08T04:49:08;10.53;;;9.27;;
6023;SDS011;3040;42.654;23.296;2023-01-08T04:51:37;10.57;;;9.57;;
6023;SDS011;3040;42.654;23.296;2023-01-08T04:54:04;10.10;;;7.83;;
6023;SDS011;3040;42.654;23.296;2023-01-08T04:56:31;9.27;;;8.43;;
6023;SDS011;3040;42.654;23.296;2023-01-08T04:58:58;14.20;;;10.93;;
6023;SDS011;3040;42.654;23.296;2023-01-08T05:01:25;12.60;;;9.43;;
6023;SDS011;3040;42.654;23.296;2023-01-08T05:03:53;14.73;;;11.07;;
6023;SDS011;3040;42.654;23.296;2023-01-08T05:06:21;17.23;;;10.73;;
6023;SDS011;3040;42.654;23.296;2023-01-08T05:08:49;19.97;;;11.40;;
6023;SDS011;3040;42.654;23.296;2023-01-08T05:11:16;14.97;;;11.00;;
6023;SDS011;3040;42.654;23.296;2023-01-08T05:13:45;12.03;;;10.83;;
6023;SDS011;3040;42.654;23.296;2023-01-08T05:16:13;24.57;;;12.70;;
6023;SDS011;3040;42.654;23.296;2023-01-08T05:18:41;16.67;;;11.40;;
6023;SDS011;3040;42.654;23.296;2023-01-08T05:21:09;15.27;;;12.17;;
6023;SDS011;3040;42.654;23.296;2023-01-08T05:23:36;19.00;;;12.17;;
6023;SDS011;3040;42.654;23.296;2023-01-08T05:26:05;20.03;;;13.53;;
6023;SDS011;3040;42.654;23.296;2023-01-08T05:28:32;18.77;;;13.77;;
6023;SDS011;3040;42.654;23.296;2023-01-08T05:30:59;20.80;;;13.70;;
6023;SDS011;3040;42.654;23.296;2023-01-08T05:33:26;18.47;;;12.70;;
6023;SDS011;3040;42.654;23.296;2023-01-08T05:35:53;19.07;;;12.97;;
6023;SDS011;3040;42.654;23.296;2023-01-08T05:38:20;16.53;;;13.03;;
6023;SDS011;3040;42.654;23.296;2023-01-08T05:40:50;24.03;;;14.10;;
6023;SDS011;3040;42.654;23.296;2023-01-08T05:43:18;34.30;;;17.77;;
6023;SDS011;3040;42.654;23.296;2023-01-08T05:45:45;30.40;;;17.93;;
6023;SDS011;3040;42.654;23.296;2023-01-08T05:48:12;27.00;;;16.50;;
6023;SDS011;3040;42.654;23.296;2023-01-08T05:50:40;24.00;;;15.17;;
6023;SDS011;3040;42.654;23.296;2023-01-08T05:53:08;40.30;;;23.23;;
6023;SDS011;3040;42.654;23.296;2023-01-08T05:55:35;40.83;;;23.97;;
6023;SDS011;3040;42.654;23.296;2023-01-08T05:58:02;40.57;;;21.80;;
6023;SDS011;3040;42.654;23.296;2023-01-08T06:00:31;34.80;;;22.10;;
6023;SDS011;3040;42.654;23.296;2023-01-08T06:02:59;25.63;;;19.20;;
6023;SDS011;3040;42.654;23.296;2023-01-08T06:05:26;27.77;;;18.90;;
6023;SDS011;3040;42.654;23.296;2023-01-08T06:07:53;35.17;;;19.90;;
6023;SDS011;3040;42.654;23.296;2023-01-08T06:10:20;26.73;;;17.90;;
6023;SDS011;3040;42.654;23.296;2023-01-08T06:12:46;33.40;;;18.30;;
6023;SDS011;3040;42.654;23.296;2023-01-08T06:15:13;25.63;;;15.80;;
6023;SDS011;3040;42.654;23.296;2023-01-08T06:17:42;39.87;;;18.70;;
6023;SDS011;3040;42.654;23.296;2023-01-08T06:20:09;24.47;;;16.40;;
6023;SDS011;3040;42.654;23.296;2023-01-08T06:22:37;27.17;;;17.03;;
6023;SDS011;3040;42.654;23.296;2023-01-08T06:25:04;30.40;;;17.37;;
6023;SDS011;3040;42.654;23.296;2023-01-08T06:27:31;24.70;;;17.43;;
6023;SDS011;3040;42.654;23.296;2023-01-08T06:29:58;30.80;;;18.27;;
6023;SDS011;3040;42.654;23.296;2023-01-08T06:32:25;32.37;;;21.90;;
6023;SDS011;3040;42.654;23.296;2023-01-08T06:34:53;24.70;;;16.23;;
6023;SDS011;3040;42.654;23.296;2023-01-08T06:37:20;29.63;;;16.57;;
6023;SDS011;3040;42.654;23.296;2023-01-08T06:39:47;19.30;;;15.17;;
6023;SDS011;3040;42.654;23.296;2023-01-08T06:42:14;23.83;;;15.00;;
6023;SDS011;3040;42.654;23.296;2023-01-08T06:44:41;27.63;;;14.27;;
6023;SDS011;3040;42.654;23.296;2023-01-08T06:47:07;22.37;;;15.10;;
6023;SDS011;3040;42.654;23.296;2023-01-08T06:49:34;26.73;;;16.33;;
6023;SDS011;3040;42.654;23.296;2023-01-08T06:52:02;29.10;;;14.93;;
6023;SDS011;3040;42.654;23.296;2023-01-08T06:54:29;29.70;;;16.53;;
6023;SDS011;3040;42.654;23.296;2023-01-08T06:56:56;26.97;;;16.97;;
6023;SDS011;3040;42.654;23.296;2023-01-08T06:59:23;20.50;;;15.33;;
6023;SDS011;3040;42.654;23.296;2023-01-08T07:01:50;33.87;;;18.07;;
6023;SDS011;3040;42.654;23.296;2023-01-08T07:04:17;26.07;;;17.37;;
6023;SDS011;3040;42.654;23.296;2023-01-08T07:06:44;26.67;;;16.90;;
6023;SDS011;3040;42.654;23.296;2023-01-08T07:09:12;30.23;;;18.27;;
6023;SDS011;3040;42.654;23.296;2023-01-08T07:11:40;37.70;;;20.43;;
6023;SDS011;3040;42.654;23.296;2023-01-08T07:14:07;33.57;;;19.83;;
6023;SDS011;3040;42.654;23.296;2023-01-08T07:16:34;31.30;;;19.43;;
6023;SDS011;3040;42.654;23.296;2023-01-08T07:19:03;35.73;;;24.47;;
6023;SDS011;3040;42.654;23.296;2023-01-08T07:21:30;27.97;;;20.57;;
6023;SDS011;3040;42.654;23.296;2023-01-08T07:23:57;31.97;;;21.87;;
6023;SDS011;3040;42.654;23.296;2023-01-08T07:26:26;32.93;;;22.93;;
6023;SDS011;3040;42.654;23.296;2023-01-08T07:28:53;36.50;;;21.80;;
6023;SDS011;3040;42.654;23.296;2023-01-08T07:31:19;28.60;;;20.70;;
6023;SDS011;3040;42.654;23.296;2023-01-08T07:33:46;33.80;;;22.80;;
6023;SDS011;3040;42.654;23.296;2023-01-08T07:36:13;35.17;;;20.63;;
6023;SDS011;3040;42.654;23.296;2023-01-08T07:38:41;31.60;;;21.67;;
6023;SDS011;3040;42.654;23.296;2023-01-08T07:41:08;32.33;;;22.80;;
6023;SDS011;3040;42.654;23.296;2023-01-08T07:43:38;31.03;;;21.27;;
6023;SDS011;3040;42.654;23.296;2023-01-08T07:46:05;32.73;;;22.87;;
6023;SDS011;3040;42.654;23.296;2023-01-08T07:48:32;33.23;;;21.70;;
6023;SDS011;3040;42.654;23.296;2023-01-08T07:50:59;34.60;;;23.03;;
6023;SDS011;3040;42.654;23.296;2023-01-08T07:53:27;33.63;;;23.53;;
6023;SDS011;3040;42.654;23.296;2023-01-08T07:55:57;35.30;;;23.63;;
6023;SDS011;3040;42.654;23.296;2023-01-08T07:58:25;46.83;;;25.87;;
6023;SDS011;3040;42.654;23.296;2023-01-08T08:00:54;35.73;;;24.07;;
6023;SDS011;3040;42.654;23.296;2023-01-08T08:03:21;36.40;;;25.30;;
6023;SDS011;3040;42.654;23.296;2023-01-08T08:05:48;33.53;;;24.67;;
6023;SDS011;3040;42.654;23.296;2023-01-08T08:08:16;40.87;;;24.17;;
6023;SDS011;3040;42.654;23.296;2023-01-08T08:10:43;34.53;;;23.97;;
6023;SDS011;3040;42.654;23.296;2023-01-08T08:13:10;26.50;;;19.07;;
6023;SDS011;3040;42.654;23.296;2023-01-08T08:15:38;28.17;;;20.93;;
6023;SDS011;3040;42.654;23.296;2023-01-08T08:18:07;24.90;;;18.17;;
6023;SDS011;3040;42.654;23.296;2023-01-08T08:20:34;25.77;;;20.33;;
6023;SDS011;3040;42.654;23.296;2023-01-08T08:23:02;26.93;;;20.63;;
6023;SDS011;3040;42.654;23.296;2023-01-08T08:25:30;22.83;;;19.63;;
6023;SDS011;3040;42.654;23.296;2023-01-08T08:27:57;31.73;;;22.07;;
6023;SDS011;3040;42.654;23.296;2023-01-08T08:30:27;32.13;;;22.10;;
6023;SDS011;3040;42.654;23.296;2023-01-08T08:32:57;32.80;;;21.30;;
6023;SDS011;3040;42.654;23.296;2023-01-08T08:35:26;32.70;;;21.97;;
6023;SDS011;3040;42.654;23.296;2023-01-08T08:37:53;30.27;;;20.70;;
6023;SDS011;3040;42.654;23.296;2023-01-08T08:40:20;37.67;;;21.33;;
6023;SDS011;3040;42.654;23.296;2023-01-08T08:42:47;26.67;;;18.13;;
6023;SDS011;3040;42.654;23.296;2023-01-08T08:45:14;23.07;;;17.80;;
6023;SDS011;3040;42.654;23.296;2023-01-08T08:47:41;19.73;;;17.67;;
6023;SDS011;3040;42.654;23.296;2023-01-08T08:50:08;22.23;;;17.27;;
6023;SDS011;3040;42.654;23.296;2023-01-08T08:52:37;18.63;;;16.70;;
6023;SDS011;3040;42.654;23.296;2023-01-08T08:55:04;19.40;;;16.60;;
6023;SDS011;3040;42.654;23.296;2023-01-08T08:57:32;16.50;;;14.63;;
6023;SDS011;3040;42.654;23.296;2023-01-08T08:59:58;15.40;;;13.47;;
6023;SDS011;3040;42.654;23.296;2023-01-08T09:02:25;14.30;;;12.83;;
6023;SDS011;3040;42.654;23.296;2023-01-08T09:04:52;21.33;;;13.77;;
6023;SDS011;3040;42.654;23.296;2023-01-08T09:07:19;14.43;;;12.93;;
6023;SDS011;3040;42.654;23.296;2023-01-08T09:09:47;17.57;;;13.63;;
6023;SDS011;3040;42.654;23.296;2023-01-08T09:12:14;14.73;;;12.77;;
6023;SDS011;3040;42.654;23.296;2023-01-08T09:14:41;13.53;;;12.27;;
6023;SDS011;3040;42.654;23.296;2023-01-08T09:17:08;13.43;;;12.13;;
6023;SDS011;3040;42.654;23.296;2023-01-08T09:19:35;16.43;;;12.63;;
6023;SDS011;3040;42.654;23.296;2023-01-08T09:22:02;13.40;;;12.10;;
6023;SDS011;3040;42.654;23.296;2023-01-08T09:24:29;14.77;;;13.43;;
6023;SDS011;3040;42.654;23.296;2023-01-08T09:26:58;14.47;;;13.03;;
6023;SDS011;3040;42.654;23.296;2023-01-08T09:29:25;18.20;;;12.80;;
6023;SDS011;3040;42.654;23.296;2023-01-08T09:31:52;15.40;;;13.83;;
6023;SDS011;3040;42.654;23.296;2023-01-08T09:34:19;17.67;;;15.83;;
6023;SDS011;3040;42.654;23.296;2023-01-08T09:36:46;17.33;;;13.10;;
6023;SDS011;3040;42.654;23.296;2023-01-08T09:39:13;16.83;;;13.27;;
6023;SDS011;3040;42.654;23.296;2023-01-08T09:41:41;16.13;;;14.00;;
6023;SDS011;3040;42.654;23.296;2023-01-08T09:44:14;16.47;;;13.80;;
6023;SDS011;3040;42.654;23.296;2023-01-08T09:46:45;15.53;;;13.17;;
6023;SDS011;3040;42.654;23.296;2023-01-08T09:49:14;14.63;;;13.30;;
6023;SDS011;3040;42.654;23.296;2023-01-08T09:51:46;15.07;;;13.73;;
6023;SDS011;3040;42.654;23.296;2023-01-08T09:54:14;14.70;;;13.17;;
6023;SDS011;3040;42.654;23.296;2023-01-08T09:56:42;17.97;;;13.70;;
6023;SDS011;3040;42.654;23.296;2023-01-08T09:59:11;16.40;;;12.70;;
6023;SDS011;3040;42.654;23.296;2023-01-08T10:01:43;14.20;;;12.90;;
6023;SDS011;3040;42.654;23.296;2023-01-08T10:04:13;15.13;;;13.53;;
6023;SDS011;3040;42.654;23.296;2023-01-08T10:06:44;13.00;;;11.27;;
6023;SDS011;3040;42.654;23.296;2023-01-08T10:09:15;13.30;;;12.40;;
6023;SDS011;3040;42.654;23.296;2023-01-08T10:11:45;13.40;;;11.97;;
6023;SDS011;3040;42.654;23.296;2023-01-08T10:14:18;19.87;;;13.40;;
6023;SDS011;3040;42.654;23.296;2023-01-08T10:16:51;13.90;;;12.60;;
6023;SDS011;3040;42.654;23.296;2023-01-08T10:19:21;16.33;;;14.10;;
6023;SDS011;3040;42.654;23.296;2023-01-08T10:21:48;13.63;;;12.27;;
6023;SDS011;3040;42.654;23.296;2023-01-08T10:24:16;12.87;;;11.60;;
6023;SDS011;3040;42.654;23.296;2023-01-08T10:26:44;15.03;;;12.63;;
6023;SDS011;3040;42.654;23.296;2023-01-08T10:29:12;14.63;;;13.07;;
6023;SDS011;3040;42.654;23.296;2023-01-08T10:31:46;15.50;;;14.10;;
6023;SDS011;3040;42.654;23.296;2023-01-08T10:34:21;19.97;;;17.83;;
6023;SDS011;3040;42.654;23.296;2023-01-08T10:36:53;21.37;;;18.57;;
6023;SDS011;3040;42.654;23.296;2023-01-08T10:39:21;24.93;;;20.40;;
6023;SDS011;3040;42.654;23.296;2023-01-08T10:41:50;32.37;;;19.87;;
6023;SDS011;3040;42.654;23.296;2023-01-08T10:44:22;23.83;;;19.50;;
6023;SDS011;3040;42.654;23.296;2023-01-08T10:46:53;24.23;;;19.17;;
6023;SDS011;3040;42.654;23.296;2023-01-08T10:49:26;21.10;;;18.80;;
6023;SDS011;3040;42.654;23.296;2023-01-08T10:51:57;20.73;;;18.67;;
6023;SDS011;3040;42.654;23.296;2023-01-08T10:54:34;22.20;;;19.97;;
6023;SDS011;3040;42.654;23.296;2023-01-08T10:57:02;20.27;;;18.27;;
6023;SDS011;3040;42.654;23.296;2023-01-08T10:59:46;22.27;;;18.73;;
6023;SDS011;3040;42.654;23.296;2023-01-08T11:02:16;23.67;;;19.07;;
6023;SDS011;3040;42.654;23.296;2023-01-08T11:04:49;23.67;;;19.27;;
6023;SDS011;3040;42.654;23.296;2023-01-08T11:07:18;22.20;;;18.73;;
6023;SDS011;3040;42.654;23.296;2023-01-08T11:09:47;21.03;;;18.83;;
6023;SDS011;3040;42.654;23.296;2023-01-08T11:14:56;20.73;;;18.60;;
6023;SDS011;3040;42.654;23.296;2023-01-08T11:17:24;21.97;;;19.77;;
6023;SDS011;3040;42.654;23.296;2023-01-08T11:19:52;23.63;;;19.23;;
6023;SDS011;3040;42.654;23.296;2023-01-08T11:22:20;22.53;;;20.10;;
6023;SDS011;3040;42.654;23.296;2023-01-08T11:24:48;24.10;;;20.23;;
6023;SDS011;3040;42.654;23.296;2023-01-08T11:27:17;21.13;;;18.93;;
6023;SDS011;3040;42.654;23.296;2023-01-08T11:29:51;31.90;;;21.27;;
6023;SDS011;3040;42.654;23.296;2023-01-08T11:32:28;28.67;;;21.70;;
6023;SDS011;3040;42.654;23.296;2023-01-08T11:35:05;31.60;;;21.90;;
6023;SDS011;3040;42.654;23.296;2023-01-08T11:37:38;25.27;;;22.47;;
6023;SDS011;3040;42.654;23.296;2023-01-08T11:40:12;28.30;;;22.97;;
6023;SDS011;3040;42.654;23.296;2023-01-08T11:42:45;30.07;;;23.13;;
6023;SDS011;3040;42.654;23.296;2023-01-08T11:45:22;27.30;;;22.07;;
6023;SDS011;3040;42.654;23.296;2023-01-08T11:48:11;29.87;;;24.83;;
6023;SDS011;3040;42.654;23.296;2023-01-08T11:50:51;25.57;;;20.17;;
6023;SDS011;3040;42.654;23.296;2023-01-08T11:53:30;30.40;;;23.20;;
6023;SDS011;3040;42.654;23.296;2023-01-08T11:56:07;25.93;;;22.43;;
6023;SDS011;3040;42.654;23.296;2023-01-08T11:58:49;25.60;;;21.07;;
6023;SDS011;3040;42.654;23.296;2023-01-08T12:01:40;25.50;;;21.30;;
6023;SDS011;3040;42.654;23.296;2023-01-08T12:04:32;26.07;;;21.20;;
6023;SDS011;3040;42.654;23.296;2023-01-08T12:07:21;24.80;;;21.10;;
6023;SDS011;3040;42.654;23.296;2023-01-08T12:09:55;28.83;;;21.60;;
6023;SDS011;3040;42.654;23.296;2023-01-08T12:12:36;28.27;;;21.63;;
6023;SDS011;3040;42.654;23.296;2023-01-08T12:15:14;25.43;;;20.90;;
6023;SDS011;3040;42.654;23.296;2023-01-08T12:17:50;26.50;;;21.57;;
6023;SDS011;3040;42.654;23.296;2023-01-08T12:20:30;29.03;;;23.23;;
6023;SDS011;3040;42.654;23.296;2023-01-08T12:23:05;23.77;;;21.37;;
6023;SDS011;3040;42.654;23.296;2023-01-08T12:25:52;24.00;;;21.53;;
6023;SDS011;3040;42.654;23.296;2023-01-08T12:29:03;26.00;;;21.13;;
6023;SDS011;3040;42.654;23.296;2023-01-08T12:34:56;24.03;;;21.23;;
6023;SDS011;3040;42.654;23.296;2023-01-08T12:37:32;25.77;;;21.57;;
6023;SDS011;3040;42.654;23.296;2023-01-08T12:40:02;30.43;;;24.60;;
6023;SDS011;3040;42.654;23.296;2023-01-08T12:42:40;27.10;;;23.40;;
6023;SDS011;3040;42.654;23.296;2023-01-08T12:45:13;24.87;;;22.47;;
6023;SDS011;3040;42.654;23.296;2023-01-08T12:47:44;32.70;;;24.20;;
6023;SDS011;3040;42.654;23.296;2023-01-08T12:50:26;30.33;;;24.17;;
6023;SDS011;3040;42.654;23.296;2023-01-08T12:53:05;30.57;;;23.17;;
6023;SDS011;3040;42.654;23.296;2023-01-08T12:55:41;24.60;;;21.73;;
6023;SDS011;3040;42.654;23.296;2023-01-08T12:58:16;26.47;;;21.63;;
6023;SDS011;3040;42.654;23.296;2023-01-08T13:00:53;27.27;;;22.53;;
6023;SDS011;3040;42.654;23.296;2023-01-08T13:03:26;27.17;;;20.97;;
6023;SDS011;3040;42.654;23.296;2023-01-08T13:06:03;25.63;;;21.07;;
6023;SDS011;3040;42.654;23.296;2023-01-08T13:08:35;26.93;;;23.00;;
6023;SDS011;3040;42.654;23.296;2023-01-08T13:11:03;32.13;;;22.90;;
6023;SDS011;3040;42.654;23.296;2023-01-08T13:13:31;31.33;;;23.50;;
6023;SDS011;3040;42.654;23.296;2023-01-08T13:16:06;31.00;;;22.83;;
6023;SDS011;3040;42.654;23.296;2023-01-08T13:18:34;29.07;;;23.07;;
6023;SDS011;3040;42.654;23.296;2023-01-08T13:21:02;29.90;;;22.27;;
6023;SDS011;3040;42.654;23.296;2023-01-08T13:23:31;33.40;;;22.17;;
6023;SDS011;3040;42.654;23.296;2023-01-08T13:26:02;30.57;;;22.23;;
6023;SDS011;3040;42.654;23.296;2023-01-08T13:28:38;27.63;;;20.83;;
6023;SDS011;3040;42.654;23.296;2023-01-08T13:31:09;36.10;;;23.27;;
6023;SDS011;3040;42.654;23.296;2023-01-08T13:33:52;32.40;;;22.90;;
6023;SDS011;3040;42.654;23.296;2023-01-08T13:36:21;26.20;;;20.80;;
6023;SDS011;3040;42.654;23.296;2023-01-08T13:39:00;34.13;;;19.03;;
6023;SDS011;3040;42.654;23.296;2023-01-08T13:41:31;28.17;;;19.00;;
6023;SDS011;3040;42.654;23.296;2023-01-08T13:44:00;29.97;;;19.27;;
6023;SDS011;3040;42.654;23.296;2023-01-08T13:46:30;24.90;;;18.40;;
6023;SDS011;3040;42.654;23.296;2023-01-08T13:48:59;26.40;;;19.67;;
6023;SDS011;3040;42.654;23.296;2023-01-08T13:51:37;35.27;;;21.53;;
6023;SDS011;3040;42.654;23.296;2023-01-08T13:57:05;56.00;;;29.40;;
6023;SDS011;3040;42.654;23.296;2023-01-08T13:59:39;48.83;;;26.97;;
6023;SDS011;3040;42.654;23.296;2023-01-08T14:05:16;27.67;;;19.60;;
6023;SDS011;3040;42.654;23.296;2023-01-08T14:07:48;28.90;;;19.40;;
6023;SDS011;3040;42.654;23.296;2023-01-08T14:10:18;43.53;;;25.57;;
6023;SDS011;3040;42.654;23.296;2023-01-08T14:12:48;44.53;;;25.17;;
6023;SDS011;3040;42.654;23.296;2023-01-08T14:15:22;23.80;;;17.83;;
6023;SDS011;3040;42.654;23.296;2023-01-08T14:17:51;25.93;;;16.13;;
6023;SDS011;3040;42.654;23.296;2023-01-08T14:20:28;18.97;;;13.70;;
6023;SDS011;3040;42.654;23.296;2023-01-08T14:22:58;35.13;;;21.37;;
6023;SDS011;3040;42.654;23.296;2023-01-08T14:25:26;24.97;;;16.67;;
6023;SDS011;3040;42.654;23.296;2023-01-08T14:27:55;23.00;;;16.67;;
6023;SDS011;3040;42.654;23.296;2023-01-08T14:30:24;18.97;;;15.73;;
6023;SDS011;3040;42.654;23.296;2023-01-08T14:32:52;16.60;;;13.47;;
6023;SDS011;3040;42.654;23.296;2023-01-08T14:35:24;30.70;;;15.53;;
6023;SDS011;3040;42.654;23.296;2023-01-08T14:37:57;37.17;;;24.43;;
6023;SDS011;3040;42.654;23.296;2023-01-08T14:40:27;56.93;;;26.03;;
6023;SDS011;3040;42.654;23.296;2023-01-08T14:42:57;44.60;;;21.40;;
6023;SDS011;3040;42.654;23.296;2023-01-08T14:45:28;44.43;;;23.60;;
6023;SDS011;3040;42.654;23.296;2023-01-08T14:47:58;37.77;;;23.50;;
6023;SDS011;3040;42.654;23.296;2023-01-08T14:50:27;40.00;;;23.07;;
6023;SDS011;3040;42.654;23.296;2023-01-08T14:52:56;43.00;;;22.97;;
6023;SDS011;3040;42.654;23.296;2023-01-08T14:55:29;34.43;;;17.57;;
6023;SDS011;3040;42.654;23.296;2023-01-08T14:57:59;26.83;;;15.33;;
6023;SDS011;3040;42.654;23.296;2023-01-08T15:00:27;32.53;;;17.97;;
6023;SDS011;3040;42.654;23.296;2023-01-08T15:02:56;38.20;;;18.87;;